Terminal Aerodrome Forecast
Issued by NWS Buffalo, NY

Home | Current Version | Previous Version | Text Only | Print | Product List | Glossary On
Versions: 1 2 3 4 5 6 7 8 9 10 11 12 13 14 15 16 17 18 19 20 21 22 23 24 25 26
370
FTUS41 KBUF 101518 AAA
TAFROC
TAF AMD
KROC 101518Z 1015/1112 27016G25KT 2SM -SN OVC015
     FM101800 28015G23KT 3SM -SHSN OVC025
     FM102200 28014G21KT 2SM -SHSN OVC020
     FM110200 27014G21KT 4SM -SHSN OVC035
     FM110500 27014G21KT P6SM VCSH OVC040
     FM110900 27015G22KT 2SM -SHSN BLSN OVC015=

USA.gov is the U.S. government's official web portal to all federal, state and local government web resources and services.